sensor_id;sensor_type;location;lat;lon;timestamp;P1;durP1;ratioP1;P2;durP2;ratioP2
253;SDS011;590;48.772;8.846;2023-07-16T00:02:08;2.40;;;0.60;;
253;SDS011;590;48.772;8.846;2023-07-16T00:04:36;0.90;;;0.57;;
253;SDS011;590;48.772;8.846;2023-07-16T00:07:06;0.63;;;0.63;;
253;SDS011;590;48.772;8.846;2023-07-16T00:09:35;1.73;;;0.50;;
253;SDS011;590;48.772;8.846;2023-07-16T00:12:03;1.33;;;0.60;;
253;SDS011;590;48.772;8.846;2023-07-16T00:14:32;1.13;;;0.67;;
253;SDS011;590;48.772;8.846;2023-07-16T00:17:00;0.70;;;0.50;;
253;SDS011;590;48.772;8.846;2023-07-16T00:19:28;1.17;;;0.60;;
253;SDS011;590;48.772;8.846;2023-07-16T00:21:56;1.57;;;0.63;;
253;SDS011;590;48.772;8.846;2023-07-16T00:24:26;1.80;;;0.83;;
253;SDS011;590;48.772;8.846;2023-07-16T00:26:54;0.80;;;0.73;;
253;SDS011;590;48.772;8.846;2023-07-16T00:29:22;0.87;;;0.70;;
253;SDS011;590;48.772;8.846;2023-07-16T00:31:50;0.60;;;0.50;;
253;SDS011;590;48.772;8.846;2023-07-16T00:34:18;0.70;;;0.60;;
253;SDS011;590;48.772;8.846;2023-07-16T00:36:46;0.90;;;0.80;;
253;SDS011;590;48.772;8.846;2023-07-16T00:39:14;0.80;;;0.77;;
253;SDS011;590;48.772;8.846;2023-07-16T00:41:43;1.30;;;0.83;;
253;SDS011;590;48.772;8.846;2023-07-16T00:44:11;0.70;;;0.70;;
253;SDS011;590;48.772;8.846;2023-07-16T00:46:39;1.27;;;0.80;;
253;SDS011;590;48.772;8.846;2023-07-16T00:49:07;0.90;;;0.83;;
253;SDS011;590;48.772;8.846;2023-07-16T00:51:35;1.00;;;0.90;;
253;SDS011;590;48.772;8.846;2023-07-16T00:54:04;1.47;;;1.03;;
253;SDS011;590;48.772;8.846;2023-07-16T00:56:32;1.30;;;0.97;;
253;SDS011;590;48.772;8.846;2023-07-16T00:59:02;0.80;;;0.80;;
253;SDS011;590;48.772;8.846;2023-07-16T01:01:30;1.20;;;1.13;;
253;SDS011;590;48.772;8.846;2023-07-16T01:03:58;0.97;;;0.90;;
253;SDS011;590;48.772;8.846;2023-07-16T01:06:28;1.33;;;1.03;;
253;SDS011;590;48.772;8.846;2023-07-16T01:09:02;1.97;;;1.07;;
253;SDS011;590;48.772;8.846;2023-07-16T01:11:31;1.10;;;0.97;;
253;SDS011;590;48.772;8.846;2023-07-16T01:14:03;1.50;;;1.20;;
253;SDS011;590;48.772;8.846;2023-07-16T01:16:34;1.43;;;1.20;;
253;SDS011;590;48.772;8.846;2023-07-16T01:19:02;1.80;;;1.20;;
253;SDS011;590;48.772;8.846;2023-07-16T01:21:33;2.90;;;1.40;;
253;SDS011;590;48.772;8.846;2023-07-16T01:24:16;1.93;;;1.10;;
253;SDS011;590;48.772;8.846;2023-07-16T01:27:04;1.47;;;0.90;;
253;SDS011;590;48.772;8.846;2023-07-16T01:29:46;1.20;;;1.10;;
253;SDS011;590;48.772;8.846;2023-07-16T01:32:16;2.00;;;1.20;;
253;SDS011;590;48.772;8.846;2023-07-16T01:34:45;1.27;;;1.20;;
253;SDS011;590;48.772;8.846;2023-07-16T01:37:14;1.53;;;1.03;;
253;SDS011;590;48.772;8.846;2023-07-16T01:39:42;3.40;;;1.40;;
253;SDS011;590;48.772;8.846;2023-07-16T01:42:10;1.63;;;1.10;;
253;SDS011;590;48.772;8.846;2023-07-16T01:44:38;5.10;;;1.17;;
253;SDS011;590;48.772;8.846;2023-07-16T01:47:09;1.17;;;1.10;;
253;SDS011;590;48.772;8.846;2023-07-16T01:49:38;3.30;;;1.40;;
253;SDS011;590;48.772;8.846;2023-07-16T01:52:09;1.47;;;1.20;;
253;SDS011;590;48.772;8.846;2023-07-16T01:54:37;3.47;;;1.43;;
253;SDS011;590;48.772;8.846;2023-07-16T01:57:05;1.87;;;1.23;;
253;SDS011;590;48.772;8.846;2023-07-16T01:59:33;2.30;;;1.47;;
253;SDS011;590;48.772;8.846;2023-07-16T02:02:01;1.50;;;1.33;;
253;SDS011;590;48.772;8.846;2023-07-16T02:04:30;2.10;;;1.63;;
253;SDS011;590;48.772;8.846;2023-07-16T02:06:58;2.40;;;1.37;;
253;SDS011;590;48.772;8.846;2023-07-16T02:09:26;2.17;;;1.63;;
253;SDS011;590;48.772;8.846;2023-07-16T02:11:54;4.13;;;1.70;;
253;SDS011;590;48.772;8.846;2023-07-16T02:14:22;1.67;;;1.23;;
253;SDS011;590;48.772;8.846;2023-07-16T02:16:50;6.17;;;2.20;;
253;SDS011;590;48.772;8.846;2023-07-16T02:19:18;2.20;;;1.57;;
253;SDS011;590;48.772;8.846;2023-07-16T02:21:47;2.50;;;1.70;;
253;SDS011;590;48.772;8.846;2023-07-16T02:24:15;2.40;;;1.60;;
253;SDS011;590;48.772;8.846;2023-07-16T02:26:43;3.00;;;1.80;;
253;SDS011;590;48.772;8.846;2023-07-16T02:29:11;2.63;;;1.60;;
253;SDS011;590;48.772;8.846;2023-07-16T02:31:39;2.17;;;1.10;;
253;SDS011;590;48.772;8.846;2023-07-16T02:34:10;2.10;;;1.60;;
253;SDS011;590;48.772;8.846;2023-07-16T02:36:38;2.50;;;1.60;;
253;SDS011;590;48.772;8.846;2023-07-16T02:39:07;2.20;;;1.33;;
253;SDS011;590;48.772;8.846;2023-07-16T02:41:35;4.87;;;1.53;;
253;SDS011;590;48.772;8.846;2023-07-16T02:44:04;3.97;;;1.53;;
253;SDS011;590;48.772;8.846;2023-07-16T02:46:33;2.37;;;1.40;;
253;SDS011;590;48.772;8.846;2023-07-16T02:49:02;3.70;;;1.37;;
253;SDS011;590;48.772;8.846;2023-07-16T02:51:31;1.87;;;1.30;;
253;SDS011;590;48.772;8.846;2023-07-16T02:53:59;3.33;;;1.23;;
253;SDS011;590;48.772;8.846;2023-07-16T02:56:28;1.77;;;1.20;;
253;SDS011;590;48.772;8.846;2023-07-16T02:58:56;2.00;;;1.40;;
253;SDS011;590;48.772;8.846;2023-07-16T03:01:24;2.40;;;1.30;;
253;SDS011;590;48.772;8.846;2023-07-16T03:03:52;5.63;;;1.67;;
253;SDS011;590;48.772;8.846;2023-07-16T03:06:20;1.80;;;1.60;;
253;SDS011;590;48.772;8.846;2023-07-16T03:08:49;1.43;;;1.27;;
253;SDS011;590;48.772;8.846;2023-07-16T03:11:17;1.57;;;1.27;;
253;SDS011;590;48.772;8.846;2023-07-16T03:13:46;1.80;;;1.70;;
253;SDS011;590;48.772;8.846;2023-07-16T03:16:14;12.67;;;1.90;;
253;SDS011;590;48.772;8.846;2023-07-16T03:18:43;2.40;;;1.93;;
253;SDS011;590;48.772;8.846;2023-07-16T03:21:11;2.97;;;1.50;;
253;SDS011;590;48.772;8.846;2023-07-16T03:23:39;1.53;;;1.50;;
253;SDS011;590;48.772;8.846;2023-07-16T03:26:07;1.70;;;1.70;;
253;SDS011;590;48.772;8.846;2023-07-16T03:28:35;4.20;;;1.73;;
253;SDS011;590;48.772;8.846;2023-07-16T03:31:05;2.77;;;2.17;;
253;SDS011;590;48.772;8.846;2023-07-16T03:33:33;1.60;;;1.57;;
253;SDS011;590;48.772;8.846;2023-07-16T03:36:01;3.47;;;1.73;;
253;SDS011;590;48.772;8.846;2023-07-16T03:38:29;3.07;;;1.40;;
253;SDS011;590;48.772;8.846;2023-07-16T03:40:57;1.60;;;1.40;;
253;SDS011;590;48.772;8.846;2023-07-16T03:43:25;3.90;;;1.63;;
253;SDS011;590;48.772;8.846;2023-07-16T03:45:53;1.53;;;1.50;;
253;SDS011;590;48.772;8.846;2023-07-16T03:48:22;2.70;;;1.60;;
253;SDS011;590;48.772;8.846;2023-07-16T03:50:50;3.93;;;2.13;;
253;SDS011;590;48.772;8.846;2023-07-16T03:53:18;1.87;;;1.50;;
253;SDS011;590;48.772;8.846;2023-07-16T03:55:46;1.70;;;1.60;;
253;SDS011;590;48.772;8.846;2023-07-16T03:58:14;3.17;;;1.57;;
253;SDS011;590;48.772;8.846;2023-07-16T04:00:42;3.10;;;1.97;;
253;SDS011;590;48.772;8.846;2023-07-16T04:03:10;1.97;;;1.87;;
253;SDS011;590;48.772;8.846;2023-07-16T04:05:40;2.60;;;1.70;;
253;SDS011;590;48.772;8.846;2023-07-16T04:08:08;2.60;;;1.67;;
253;SDS011;590;48.772;8.846;2023-07-16T04:10:36;3.40;;;1.80;;
253;SDS011;590;48.772;8.846;2023-07-16T04:13:04;3.63;;;1.90;;
253;SDS011;590;48.772;8.846;2023-07-16T04:15:32;2.07;;;1.90;;
253;SDS011;590;48.772;8.846;2023-07-16T04:18:00;4.50;;;1.97;;
253;SDS011;590;48.772;8.846;2023-07-16T04:20:28;5.60;;;2.10;;
253;SDS011;590;48.772;8.846;2023-07-16T04:22:58;2.53;;;2.07;;
253;SDS011;590;48.772;8.846;2023-07-16T04:25:26;6.30;;;2.00;;
253;SDS011;590;48.772;8.846;2023-07-16T04:27:54;4.53;;;2.07;;
253;SDS011;590;48.772;8.846;2023-07-16T04:30:23;6.77;;;2.67;;
253;SDS011;590;48.772;8.846;2023-07-16T04:32:51;5.00;;;2.20;;
253;SDS011;590;48.772;8.846;2023-07-16T04:35:19;3.27;;;1.87;;
253;SDS011;590;48.772;8.846;2023-07-16T04:37:47;1.73;;;1.63;;
253;SDS011;590;48.772;8.846;2023-07-16T04:40:16;2.70;;;1.97;;
253;SDS011;590;48.772;8.846;2023-07-16T04:42:44;2.10;;;1.70;;
253;SDS011;590;48.772;8.846;2023-07-16T04:45:12;3.43;;;2.10;;
253;SDS011;590;48.772;8.846;2023-07-16T04:47:40;2.13;;;1.80;;
253;SDS011;590;48.772;8.846;2023-07-16T04:50:08;3.10;;;2.47;;
253;SDS011;590;48.772;8.846;2023-07-16T04:52:37;3.07;;;2.20;;
253;SDS011;590;48.772;8.846;2023-07-16T04:55:05;2.50;;;2.03;;
253;SDS011;590;48.772;8.846;2023-07-16T04:57:35;2.63;;;2.00;;
253;SDS011;590;48.772;8.846;2023-07-16T05:00:04;5.00;;;2.67;;
253;SDS011;590;48.772;8.846;2023-07-16T05:02:34;7.13;;;2.00;;
253;SDS011;590;48.772;8.846;2023-07-16T05:05:02;3.30;;;1.63;;
253;SDS011;590;48.772;8.846;2023-07-16T05:07:30;2.13;;;1.97;;
253;SDS011;590;48.772;8.846;2023-07-16T05:09:58;2.60;;;1.80;;
253;SDS011;590;48.772;8.846;2023-07-16T05:12:26;4.53;;;1.87;;
253;SDS011;590;48.772;8.846;2023-07-16T05:14:56;4.90;;;1.80;;
253;SDS011;590;48.772;8.846;2023-07-16T05:17:24;2.60;;;1.67;;
253;SDS011;590;48.772;8.846;2023-07-16T05:19:52;4.87;;;2.23;;
253;SDS011;590;48.772;8.846;2023-07-16T05:22:20;2.40;;;1.70;;
253;SDS011;590;48.772;8.846;2023-07-16T05:24:48;2.63;;;2.30;;
253;SDS011;590;48.772;8.846;2023-07-16T05:27:16;3.10;;;1.77;;
253;SDS011;590;48.772;8.846;2023-07-16T05:29:44;3.83;;;1.60;;
253;SDS011;590;48.772;8.846;2023-07-16T05:32:13;1.97;;;1.87;;
253;SDS011;590;48.772;8.846;2023-07-16T05:34:41;3.13;;;1.90;;
253;SDS011;590;48.772;8.846;2023-07-16T05:37:09;2.80;;;1.83;;
253;SDS011;590;48.772;8.846;2023-07-16T05:39:37;3.47;;;2.20;;
253;SDS011;590;48.772;8.846;2023-07-16T05:42:05;4.27;;;1.87;;
253;SDS011;590;48.772;8.846;2023-07-16T05:44:50;2.97;;;1.77;;
253;SDS011;590;48.772;8.846;2023-07-16T05:47:19;3.13;;;1.80;;
253;SDS011;590;48.772;8.846;2023-07-16T05:49:47;3.93;;;2.30;;
253;SDS011;590;48.772;8.846;2023-07-16T05:52:15;3.10;;;2.17;;
253;SDS011;590;48.772;8.846;2023-07-16T05:54:43;2.30;;;2.00;;
253;SDS011;590;48.772;8.846;2023-07-16T05:57:12;2.83;;;2.30;;
253;SDS011;590;48.772;8.846;2023-07-16T05:59:40;3.87;;;1.50;;
253;SDS011;590;48.772;8.846;2023-07-16T06:02:08;3.43;;;1.83;;
253;SDS011;590;48.772;8.846;2023-07-16T06:04:37;3.30;;;2.10;;
253;SDS011;590;48.772;8.846;2023-07-16T06:07:06;2.03;;;1.80;;
253;SDS011;590;48.772;8.846;2023-07-16T06:09:34;2.17;;;2.03;;
253;SDS011;590;48.772;8.846;2023-07-16T06:12:02;2.70;;;2.00;;
253;SDS011;590;48.772;8.846;2023-07-16T06:14:30;2.17;;;1.90;;
253;SDS011;590;48.772;8.846;2023-07-16T06:16:58;3.10;;;2.00;;
253;SDS011;590;48.772;8.846;2023-07-16T06:19:26;1.90;;;1.83;;
253;SDS011;590;48.772;8.846;2023-07-16T06:21:56;2.03;;;1.70;;
253;SDS011;590;48.772;8.846;2023-07-16T06:24:24;3.50;;;1.87;;
253;SDS011;590;48.772;8.846;2023-07-16T06:26:52;2.30;;;2.00;;
253;SDS011;590;48.772;8.846;2023-07-16T06:29:20;3.63;;;1.97;;
253;SDS011;590;48.772;8.846;2023-07-16T06:31:54;6.63;;;2.07;;
253;SDS011;590;48.772;8.846;2023-07-16T06:34:23;2.97;;;2.17;;
253;SDS011;590;48.772;8.846;2023-07-16T06:36:51;1.90;;;1.63;;
253;SDS011;590;48.772;8.846;2023-07-16T06:39:20;11.17;;;3.10;;
253;SDS011;590;48.772;8.846;2023-07-16T06:41:48;2.27;;;1.53;;
253;SDS011;590;48.772;8.846;2023-07-16T06:44:17;1.70;;;1.60;;
253;SDS011;590;48.772;8.846;2023-07-16T06:46:44;1.47;;;1.37;;
253;SDS011;590;48.772;8.846;2023-07-16T06:49:12;3.80;;;2.20;;
253;SDS011;590;48.772;8.846;2023-07-16T06:51:40;1.93;;;1.90;;
253;SDS011;590;48.772;8.846;2023-07-16T06:54:08;3.57;;;2.03;;
253;SDS011;590;48.772;8.846;2023-07-16T06:56:38;6.67;;;2.23;;
253;SDS011;590;48.772;8.846;2023-07-16T06:59:06;3.27;;;2.03;;
253;SDS011;590;48.772;8.846;2023-07-16T07:01:34;3.40;;;1.87;;
253;SDS011;590;48.772;8.846;2023-07-16T07:04:02;1.97;;;1.67;;
253;SDS011;590;48.772;8.846;2023-07-16T07:06:30;1.77;;;1.53;;
253;SDS011;590;48.772;8.846;2023-07-16T07:08:58;1.60;;;1.50;;
253;SDS011;590;48.772;8.846;2023-07-16T07:11:27;3.07;;;1.30;;
253;SDS011;590;48.772;8.846;2023-07-16T07:13:56;1.40;;;1.30;;
253;SDS011;590;48.772;8.846;2023-07-16T07:16:24;1.90;;;1.50;;
253;SDS011;590;48.772;8.846;2023-07-16T07:18:52;2.47;;;1.43;;
253;SDS011;590;48.772;8.846;2023-07-16T07:21:20;1.20;;;1.10;;
253;SDS011;590;48.772;8.846;2023-07-16T07:23:48;1.80;;;1.60;;
253;SDS011;590;48.772;8.846;2023-07-16T07:26:16;2.23;;;1.50;;
253;SDS011;590;48.772;8.846;2023-07-16T07:28:44;2.10;;;1.57;;
253;SDS011;590;48.772;8.846;2023-07-16T07:31:14;3.27;;;1.80;;
253;SDS011;590;48.772;8.846;2023-07-16T07:33:42;6.60;;;2.00;;
253;SDS011;590;48.772;8.846;2023-07-16T07:36:10;2.97;;;2.10;;
253;SDS011;590;48.772;8.846;2023-07-16T07:38:38;1.80;;;1.70;;
253;SDS011;590;48.772;8.846;2023-07-16T07:41:06;2.77;;;1.53;;
253;SDS011;590;48.772;8.846;2023-07-16T07:43:34;2.30;;;1.60;;
253;SDS011;590;48.772;8.846;2023-07-16T07:46:02;1.83;;;1.77;;
253;SDS011;590;48.772;8.846;2023-07-16T07:48:31;2.90;;;1.67;;
253;SDS011;590;48.772;8.846;2023-07-16T07:50:59;2.57;;;1.93;;
253;SDS011;590;48.772;8.846;2023-07-16T07:53:27;1.40;;;1.30;;
253;SDS011;590;48.772;8.846;2023-07-16T07:55:55;1.57;;;1.23;;
253;SDS011;590;48.772;8.846;2023-07-16T07:58:23;1.80;;;1.60;;
253;SDS011;590;48.772;8.846;2023-07-16T08:00:51;1.60;;;1.60;;
253;SDS011;590;48.772;8.846;2023-07-16T08:03:19;1.50;;;1.50;;
253;SDS011;590;48.772;8.846;2023-07-16T08:05:49;2.40;;;1.83;;
253;SDS011;590;48.772;8.846;2023-07-16T08:08:17;2.43;;;1.83;;
253;SDS011;590;48.772;8.846;2023-07-16T08:10:45;2.43;;;1.87;;
253;SDS011;590;48.772;8.846;2023-07-16T08:13:14;1.70;;;1.43;;
253;SDS011;590;48.772;8.846;2023-07-16T08:15:42;2.53;;;1.80;;
253;SDS011;590;48.772;8.846;2023-07-16T08:18:10;1.60;;;1.40;;
253;SDS011;590;48.772;8.846;2023-07-16T08:20:38;2.97;;;1.37;;
253;SDS011;590;48.772;8.846;2023-07-16T08:23:08;1.97;;;1.50;;
253;SDS011;590;48.772;8.846;2023-07-16T08:25:36;2.40;;;1.43;;
253;SDS011;590;48.772;8.846;2023-07-16T08:28:04;1.70;;;1.60;;
253;SDS011;590;48.772;8.846;2023-07-16T08:30:33;2.40;;;1.70;;
253;SDS011;590;48.772;8.846;2023-07-16T08:33:01;3.23;;;1.87;;
253;SDS011;590;48.772;8.846;2023-07-16T08:35:29;2.40;;;1.70;;
253;SDS011;590;48.772;8.846;2023-07-16T08:37:57;1.90;;;1.43;;
253;SDS011;590;48.772;8.846;2023-07-16T08:40:27;2.93;;;1.50;;
253;SDS011;590;48.772;8.846;2023-07-16T08:42:55;1.50;;;1.40;;
253;SDS011;590;48.772;8.846;2023-07-16T08:45:24;2.63;;;2.00;;
253;SDS011;590;48.772;8.846;2023-07-16T08:47:55;1.80;;;1.70;;
253;SDS011;590;48.772;8.846;2023-07-16T08:50:23;2.50;;;1.70;;
253;SDS011;590;48.772;8.846;2023-07-16T08:52:53;2.57;;;1.70;;
253;SDS011;590;48.772;8.846;2023-07-16T08:55:22;2.60;;;2.10;;
253;SDS011;590;48.772;8.846;2023-07-16T08:57:52;2.40;;;1.87;;
253;SDS011;590;48.772;8.846;2023-07-16T09:00:20;2.00;;;1.50;;
253;SDS011;590;48.772;8.846;2023-07-16T09:02:49;1.60;;;1.50;;
253;SDS011;590;48.772;8.846;2023-07-16T09:05:17;2.20;;;1.80;;
253;SDS011;590;48.772;8.846;2023-07-16T09:08:05;1.93;;;1.47;;
253;SDS011;590;48.772;8.846;2023-07-16T09:10:33;2.73;;;1.40;;
253;SDS011;590;48.772;8.846;2023-07-16T09:13:03;1.40;;;1.30;;
253;SDS011;590;48.772;8.846;2023-07-16T09:15:31;1.40;;;1.37;;
253;SDS011;590;48.772;8.846;2023-07-16T09:18:00;1.47;;;1.43;;
253;SDS011;590;48.772;8.846;2023-07-16T09:20:29;2.13;;;1.83;;
253;SDS011;590;48.772;8.846;2023-07-16T09:22:58;2.40;;;1.73;;
253;SDS011;590;48.772;8.846;2023-07-16T09:25:26;1.53;;;1.50;;
253;SDS011;590;48.772;8.846;2023-07-16T09:27:55;1.90;;;1.80;;
253;SDS011;590;48.772;8.846;2023-07-16T09:30:31;1.83;;;1.50;;
253;SDS011;590;48.772;8.846;2023-07-16T09:33:09;1.30;;;1.20;;
253;SDS011;590;48.772;8.846;2023-07-16T09:35:38;1.70;;;1.60;;
253;SDS011;590;48.772;8.846;2023-07-16T09:38:07;1.73;;;1.70;;
253;SDS011;590;48.772;8.846;2023-07-16T09:40:35;1.80;;;1.70;;
253;SDS011;590;48.772;8.846;2023-07-16T09:43:04;1.87;;;1.60;;
253;SDS011;590;48.772;8.846;2023-07-16T09:45:35;1.83;;;1.47;;
253;SDS011;590;48.772;8.846;2023-07-16T09:48:03;1.33;;;1.23;;
253;SDS011;590;48.772;8.846;2023-07-16T09:50:32;1.60;;;1.30;;
253;SDS011;590;48.772;8.846;2023-07-16T09:53:01;1.60;;;1.50;;
253;SDS011;590;48.772;8.846;2023-07-16T09:55:31;2.70;;;1.63;;
253;SDS011;590;48.772;8.846;2023-07-16T09:58:01;1.70;;;1.53;;
253;SDS011;590;48.772;8.846;2023-07-16T10:00:34;3.13;;;1.67;;
253;SDS011;590;48.772;8.846;2023-07-16T10:03:05;2.20;;;1.90;;
253;SDS011;590;48.772;8.846;2023-07-16T10:05:36;2.30;;;1.93;;
253;SDS011;590;48.772;8.846;2023-07-16T10:08:05;3.20;;;1.63;;
253;SDS011;590;48.772;8.846;2023-07-16T10:10:43;2.20;;;1.83;;
253;SDS011;590;48.772;8.846;2023-07-16T10:13:14;1.90;;;1.80;;
253;SDS011;590;48.772;8.846;2023-07-16T10:15:54;2.00;;;1.60;;
253;SDS011;590;48.772;8.846;2023-07-16T10:18:24;1.80;;;1.70;;
253;SDS011;590;48.772;8.846;2023-07-16T10:20:59;3.67;;;1.67;;
253;SDS011;590;48.772;8.846;2023-07-16T10:23:36;1.83;;;1.70;;
253;SDS011;590;48.772;8.846;2023-07-16T10:26:05;2.03;;;1.90;;
253;SDS011;590;48.772;8.846;2023-07-16T10:28:34;1.97;;;1.87;;
253;SDS011;590;48.772;8.846;2023-07-16T10:31:04;2.10;;;1.90;;
253;SDS011;590;48.772;8.846;2023-07-16T10:33:34;2.00;;;1.90;;
253;SDS011;590;48.772;8.846;2023-07-16T10:36:04;1.60;;;1.50;;
253;SDS011;590;48.772;8.846;2023-07-16T10:38:39;1.77;;;1.67;;
253;SDS011;590;48.772;8.846;2023-07-16T10:41:09;4.33;;;1.80;;
253;SDS011;590;48.772;8.846;2023-07-16T10:43:37;1.70;;;1.63;;
253;SDS011;590;48.772;8.846;2023-07-16T10:46:06;2.07;;;1.90;;
253;SDS011;590;48.772;8.846;2023-07-16T10:48:36;2.27;;;1.83;;
253;SDS011;590;48.772;8.846;2023-07-16T10:51:04;2.60;;;1.97;;
253;SDS011;590;48.772;8.846;2023-07-16T10:53:32;3.07;;;2.20;;
253;SDS011;590;48.772;8.846;2023-07-16T10:56:00;2.40;;;1.63;;
253;SDS011;590;48.772;8.846;2023-07-16T10:58:28;2.03;;;1.80;;
253;SDS011;590;48.772;8.846;2023-07-16T11:00:56;2.17;;;2.00;;
253;SDS011;590;48.772;8.846;2023-07-16T11:03:25;2.50;;;2.30;;
253;SDS011;590;48.772;8.846;2023-07-16T11:05:55;3.00;;;1.60;;
253;SDS011;590;48.772;8.846;2023-07-16T11:08:23;2.00;;;1.90;;
253;SDS011;590;48.772;8.846;2023-07-16T11:10:54;1.63;;;1.53;;
253;SDS011;590;48.772;8.846;2023-07-16T11:13:26;1.60;;;1.43;;
253;SDS011;590;48.772;8.846;2023-07-16T11:15:54;2.90;;;1.93;;
253;SDS011;590;48.772;8.846;2023-07-16T11:18:22;2.30;;;2.10;;
253;SDS011;590;48.772;8.846;2023-07-16T11:20:52;1.90;;;1.80;;
253;SDS011;590;48.772;8.846;2023-07-16T11:23:20;1.70;;;1.60;;
253;SDS011;590;48.772;8.846;2023-07-16T11:25:51;1.73;;;1.63;;
253;SDS011;590;48.772;8.846;2023-07-16T11:28:19;2.40;;;1.87;;
253;SDS011;590;48.772;8.846;2023-07-16T11:30:47;2.17;;;1.67;;
253;SDS011;590;48.772;8.846;2023-07-16T11:33:15;2.23;;;2.03;;
253;SDS011;590;48.772;8.846;2023-07-16T11:35:43;3.40;;;1.70;;
253;SDS011;590;48.772;8.846;2023-07-16T11:38:16;1.80;;;1.70;;
253;SDS011;590;48.772;8.846;2023-07-16T11:40:45;2.73;;;1.90;;
253;SDS011;590;48.772;8.846;2023-07-16T11:43:13;2.00;;;1.93;;
253;SDS011;590;48.772;8.846;2023-07-16T11:45:47;2.00;;;1.70;;
253;SDS011;590;48.772;8.846;2023-07-16T11:48:15;2.40;;;1.97;;
253;SDS011;590;48.772;8.846;2023-07-16T11:50:43;2.77;;;1.77;;
253;SDS011;590;48.772;8.846;2023-07-16T11:53:12;2.37;;;2.17;;
253;SDS011;590;48.772;8.846;2023-07-16T11:55:41;3.00;;;2.30;;
253;SDS011;590;48.772;8.846;2023-07-16T11:58:09;1.83;;;1.73;;
253;SDS011;590;48.772;8.846;2023-07-16T12:00:37;1.73;;;1.60;;
253;SDS011;590;48.772;8.846;2023-07-16T12:03:05;2.90;;;2.27;;
253;SDS011;590;48.772;8.846;2023-07-16T12:05:33;2.20;;;2.00;;
253;SDS011;590;48.772;8.846;2023-07-16T12:08:19;2.10;;;1.83;;
253;SDS011;590;48.772;8.846;2023-07-16T12:10:48;2.07;;;1.93;;
253;SDS011;590;48.772;8.846;2023-07-16T12:13:16;3.47;;;2.00;;
253;SDS011;590;48.772;8.846;2023-07-16T12:15:44;2.00;;;1.90;;
253;SDS011;590;48.772;8.846;2023-07-16T12:18:12;2.20;;;2.00;;
253;SDS011;590;48.772;8.846;2023-07-16T12:20:40;2.50;;;2.30;;
253;SDS011;590;48.772;8.846;2023-07-16T12:23:08;2.60;;;2.20;;
253;SDS011;590;48.772;8.846;2023-07-16T12:25:36;1.90;;;1.80;;
253;SDS011;590;48.772;8.846;2023-07-16T12:28:06;2.17;;;1.80;;
253;SDS011;590;48.772;8.846;2023-07-16T12:30:34;2.23;;;2.03;;
253;SDS011;590;48.772;8.846;2023-07-16T12:33:02;6.20;;;3.20;;
253;SDS011;590;48.772;8.846;2023-07-16T12:35:30;2.50;;;1.83;;
253;SDS011;590;48.772;8.846;2023-07-16T12:37:58;2.20;;;2.00;;
253;SDS011;590;48.772;8.846;2023-07-16T12:40:29;2.30;;;2.03;;
253;SDS011;590;48.772;8.846;2023-07-16T12:42:57;2.03;;;1.93;;
253;SDS011;590;48.772;8.846;2023-07-16T12:45:27;2.00;;;1.90;;
253;SDS011;590;48.772;8.846;2023-07-16T12:47:55;2.53;;;2.00;;
253;SDS011;590;48.772;8.846;2023-07-16T12:50:23;2.57;;;2.40;;
253;SDS011;590;48.772;8.846;2023-07-16T12:52:54;3.23;;;2.10;;
253;SDS011;590;48.772;8.846;2023-07-16T12:55:22;2.30;;;2.10;;
253;SDS011;590;48.772;8.846;2023-07-16T12:57:50;1.77;;;1.60;;
253;SDS011;590;48.772;8.846;2023-07-16T13:00:18;1.97;;;1.87;;
253;SDS011;590;48.772;8.846;2023-07-16T13:02:48;2.80;;;2.30;;
253;SDS011;590;48.772;8.846;2023-07-16T13:05:16;1.87;;;1.77;;
253;SDS011;590;48.772;8.846;2023-07-16T13:07:44;3.03;;;2.00;;
253;SDS011;590;48.772;8.846;2023-07-16T13:10:12;2.40;;;2.10;;
253;SDS011;590;48.772;8.846;2023-07-16T13:12:49;2.30;;;2.00;;
253;SDS011;590;48.772;8.846;2023-07-16T13:15:17;3.67;;;2.13;;
253;SDS011;590;48.772;8.846;2023-07-16T13:17:45;2.43;;;2.07;;
253;SDS011;590;48.772;8.846;2023-07-16T13:20:15;2.60;;;2.03;;
253;SDS011;590;48.772;8.846;2023-07-16T13:22:44;2.10;;;1.73;;
253;SDS011;590;48.772;8.846;2023-07-16T13:25:12;2.30;;;2.10;;
253;SDS011;590;48.772;8.846;2023-07-16T13:27:40;1.93;;;1.70;;
253;SDS011;590;48.772;8.846;2023-07-16T13:30:08;1.80;;;1.80;;
253;SDS011;590;48.772;8.846;2023-07-16T13:32:37;2.57;;;1.93;;
253;SDS011;590;48.772;8.846;2023-07-16T13:35:07;2.30;;;2.10;;
253;SDS011;590;48.772;8.846;2023-07-16T13:37:35;2.13;;;1.97;;
253;SDS011;590;48.772;8.846;2023-07-16T13:40:03;1.97;;;1.90;;
253;SDS011;590;48.772;8.846;2023-07-16T13:42:32;3.40;;;1.93;;
253;SDS011;590;48.772;8.846;2023-07-16T13:45:00;3.30;;;1.90;;
253;SDS011;590;48.772;8.846;2023-07-16T13:47:28;2.13;;;1.97;;
253;SDS011;590;48.772;8.846;2023-07-16T13:49:56;2.37;;;2.17;;
253;SDS011;590;48.772;8.846;2023-07-16T13:52:26;2.87;;;2.17;;
253;SDS011;590;48.772;8.846;2023-07-16T13:54:54;2.37;;;2.20;;
253;SDS011;590;48.772;8.846;2023-07-16T13:57:22;2.90;;;2.13;;
253;SDS011;590;48.772;8.846;2023-07-16T13:59:50;2.33;;;2.17;;
253;SDS011;590;48.772;8.846;2023-07-16T14:02:18;2.93;;;2.27;;
253;SDS011;590;48.772;8.846;2023-07-16T14:04:46;2.70;;;2.23;;
253;SDS011;590;48.772;8.846;2023-07-16T14:07:15;2.73;;;2.53;;
253;SDS011;590;48.772;8.846;2023-07-16T14:09:44;2.33;;;2.13;;
253;SDS011;590;48.772;8.846;2023-07-16T14:12:12;3.37;;;2.03;;
253;SDS011;590;48.772;8.846;2023-07-16T14:14:40;2.70;;;2.53;;
253;SDS011;590;48.772;8.846;2023-07-16T14:17:08;2.43;;;2.23;;
253;SDS011;590;48.772;8.846;2023-07-16T14:19:36;2.50;;;2.30;;
253;SDS011;590;48.772;8.846;2023-07-16T14:22:05;3.03;;;2.20;;
253;SDS011;590;48.772;8.846;2023-07-16T14:24:33;2.67;;;2.30;;
253;SDS011;590;48.772;8.846;2023-07-16T14:27:02;3.60;;;2.97;;
253;SDS011;590;48.772;8.846;2023-07-16T14:29:32;2.80;;;2.50;;
253;SDS011;590;48.772;8.846;2023-07-16T14:32:00;2.50;;;2.30;;
253;SDS011;590;48.772;8.846;2023-07-16T14:34:29;2.00;;;1.90;;
253;SDS011;590;48.772;8.846;2023-07-16T14:36:57;3.70;;;2.13;;
253;SDS011;590;48.772;8.846;2023-07-16T14:39:25;2.57;;;2.17;;
253;SDS011;590;48.772;8.846;2023-07-16T14:41:53;2.63;;;2.50;;
253;SDS011;590;48.772;8.846;2023-07-16T14:44:22;2.40;;;2.20;;
253;SDS011;590;48.772;8.846;2023-07-16T14:46:50;2.63;;;2.23;;
253;SDS011;590;48.772;8.846;2023-07-16T14:49:18;2.70;;;2.10;;
253;SDS011;590;48.772;8.846;2023-07-16T14:51:46;2.33;;;1.80;;
253;SDS011;590;48.772;8.846;2023-07-16T14:54:14;2.53;;;2.30;;
253;SDS011;590;48.772;8.846;2023-07-16T14:56:42;2.67;;;2.47;;
253;SDS011;590;48.772;8.846;2023-07-16T14:59:10;3.30;;;2.40;;
253;SDS011;590;48.772;8.846;2023-07-16T15:01:40;2.40;;;2.20;;
253;SDS011;590;48.772;8.846;2023-07-16T15:04:08;2.63;;;2.07;;
253;SDS011;590;48.772;8.846;2023-07-16T15:06:36;3.00;;;2.60;;
253;SDS011;590;48.772;8.846;2023-07-16T15:09:08;2.43;;;2.23;;
253;SDS011;590;48.772;8.846;2023-07-16T15:11:36;2.50;;;2.30;;
253;SDS011;590;48.772;8.846;2023-07-16T15:14:04;2.10;;;1.70;;
253;SDS011;590;48.772;8.846;2023-07-16T15:16:32;3.63;;;2.63;;
253;SDS011;590;48.772;8.846;2023-07-16T15:19:01;3.40;;;2.30;;
253;SDS011;590;48.772;8.846;2023-07-16T15:21:29;2.50;;;2.23;;
253;SDS011;590;48.772;8.846;2023-07-16T15:23:57;2.93;;;2.47;;
253;SDS011;590;48.772;8.846;2023-07-16T15:26:25;3.33;;;2.47;;
253;SDS011;590;48.772;8.846;2023-07-16T15:28:56;2.73;;;2.50;;
253;SDS011;590;48.772;8.846;2023-07-16T15:31:24;4.03;;;2.93;;
253;SDS011;590;48.772;8.846;2023-07-16T15:33:54;5.23;;;2.50;;
253;SDS011;590;48.772;8.846;2023-07-16T15:36:24;2.80;;;2.60;;
253;SDS011;590;48.772;8.846;2023-07-16T15:38:52;3.13;;;2.50;;
253;SDS011;590;48.772;8.846;2023-07-16T15:41:21;2.23;;;2.03;;
253;SDS011;590;48.772;8.846;2023-07-16T15:43:51;6.40;;;2.80;;
253;SDS011;590;48.772;8.846;2023-07-16T15:46:20;3.20;;;2.93;;
253;SDS011;590;48.772;8.846;2023-07-16T15:48:48;3.00;;;2.43;;
253;SDS011;590;48.772;8.846;2023-07-16T15:51:16;3.20;;;2.63;;
253;SDS011;590;48.772;8.846;2023-07-16T15:53:45;2.63;;;2.43;;
253;SDS011;590;48.772;8.846;2023-07-16T15:56:13;1.90;;;1.80;;